This is the latest recevied weather packets stored in our database for station/object Aulendorf. If no packets are shown the sender has not sent any weather packets the latest 10 day(s).
| Time | Temp. | Humidity | Pressure | Rain* | Wind** | Luminosity | Snow |
|---|---|---|---|---|---|---|---|
| 1777339933 | 10° C | 52% | 1015.1 hPa | 0 mm | - | - | - |
| 1777338131 | 10.56° C | 49% | 1015.2 hPa | 0 mm | - | - | - |
| 1777336329 | 11.11° C | 48% | 1015.4 hPa | 0 mm | - | - | - |
| 1777334529 | 11.11° C | 48% | 1015.4 hPa | 0 mm | - | - | - |
| 1777332730 | 11.11° C | 49% | 1015.6 hPa | 0 mm | - | - | - |
| 1777330929 | 11.11° C | 50% | 1015.5 hPa | 0 mm | - | - | - |
| 1777329129 | 11.67° C | 48% | 1015.8 hPa | 0 mm | - | - | - |
| 1777327329 | 11.67° C | 49% | 1016.3 hPa | 0 mm | - | - | - |
| 1777325530 | 11.67° C | 51% | 1016.4 hPa | 0 mm | - | - | - |
| 1777323730 | 11.11° C | 56% | 1016.5 hPa | 0 mm | - | - | - |
| 1777321930 | 12.22° C | 54% | 1016.5 hPa | 0 mm | - | - | - |
| 1777320129 | 12.78° C | 51% | 1016.6 hPa | 0 mm | - | - | - |
| 1777318340 | 14.44° C | 42% | 1016.7 hPa | 0 mm | - | - | - |
| 1777316531 | 15° C | 42% | 1016.6 hPa | 0 mm | - | - | - |
| 1777314729 | 16.11° C | 40% | 1016.3 hPa | 0 mm | - | - | - |
| 1777312929 | 17.22° C | 38% | 1016.2 hPa | 0 mm | - | - | - |
| 1777311131 | 18.33° C | 37% | 1016.2 hPa | 0 mm | - | - | - |
| 1777309331 | 18.89° C | 34% | 1016.4 hPa | 0 mm | - | - | - |
| 1777307530 | 19.44° C | 33% | 1016.6 hPa | 0 mm | - | - | - |
| 1777305731 | 20° C | 33% | 1016.6 hPa | 0 mm | - | - | - |
| 1777303931 | 20° C | 32% | 1016.6 hPa | 0 mm | - | - | - |
| 1777302132 | 20.56° C | 33% | 1016.9 hPa | 0 mm | - | - | - |
| 1777300330 | 21.11° C | 33% | 1017.1 hPa | 0 mm | - | - | - |
| 1777298531 | 21.11° C | 35% | 1017.4 hPa | 0 mm | - | - | - |
| 1777296731 | 21.11° C | 36% | 1017.6 hPa | 0 mm | - | - | - |
* Rain since midnight (hover to see other rain measurements)
** Current wind speed in m/s (hover to see current wind gust speed)